Time;durP1;ratioP1;P1;durP2;ratioP2;P2;SDS_P1;SDS_P2;PMS_P1;PMS_P2;Temp;Humidity;BMP_temperature;BMP_pressure;BME280_temperature;BME280_humidity;BME280_pressure;Samples;Min_cycle;Max_cycle;Signal;HPM_P1;HPM_P2
2024/02/17 00:00:43;;;;;;;;;;;11.10;99.90;;;;;;6702992;88;20054;-79
2024/02/17 00:10:43;;;;;;;;;;;11.10;99.90;;;;;;6706394;88;20206;-77
2024/02/17 00:20:44;;;;;;;;;;;11.00;99.90;;;;;;6710349;88;20054;-77
2024/02/17 00:30:45;;;;;;;;;;;10.80;99.90;;;;;;6710915;88;20069;-78
2024/02/17 00:51:27;;;;;;;;;;;10.80;99.90;;;;;;6636575;89;20087;-78
2024/02/17 01:01:28;;;;;;;;;;;10.80;99.90;;;;;;6631618;89;20069;-78
2024/02/17 01:11:28;;;;;;;;;;;10.80;99.90;;;;;;6638667;89;20054;-79
2024/02/17 01:21:31;;;;;;;;;;;10.70;99.90;;;;;;6632186;89;20554;-79
2024/02/17 01:31:31;;;;;;;;;;;10.70;99.90;;;;;;6632707;89;20234;-79
2024/02/17 01:41:32;;;;;;;;;;;10.60;99.90;;;;;;6624057;89;20067;-79
2024/02/17 01:51:32;;;;;;;;;;;10.70;99.90;;;;;;6630682;89;20162;-79
2024/02/17 02:01:33;;;;;;;;;;;10.60;99.90;;;;;;6649863;88;20173;-79
2024/02/17 02:11:33;;;;;;;;;;;10.60;99.90;;;;;;6625097;88;20094;-80
2024/02/17 02:21:37;;;;;;;;;;;10.60;99.90;;;;;;6616937;89;20071;-80
2024/02/17 02:31:40;;;;;;;;;;;10.50;99.90;;;;;;6624618;89;20118;-80
2024/02/17 02:41:40;;;;;;;;;;;10.60;99.90;;;;;;6624562;89;20058;-79
2024/02/17 02:51:40;;;;;;;;;;;10.50;99.90;;;;;;6636808;89;20118;-80
2024/02/17 03:01:41;;;;;;;;;;;10.50;99.90;;;;;;6629585;89;20084;-79
2024/02/17 03:11:42;;;;;;;;;;;10.40;99.90;;;;;;6625343;89;20070;-80
2024/02/17 03:21:42;;;;;;;;;;;10.50;99.90;;;;;;6625355;89;20511;-79
2024/02/17 03:31:44;;;;;;;;;;;10.40;99.90;;;;;;6619268;89;20058;-79
2024/02/17 03:41:45;;;;;;;;;;;10.50;99.90;;;;;;6680327;88;20079;-80
2024/02/17 03:51:45;;;;;;;;;;;10.40;99.90;;;;;;6645935;89;20133;-79
2024/02/17 04:01:46;;;;;;;;;;;10.40;99.90;;;;;;6643142;88;20075;-79
2024/02/17 04:11:46;;;;;;;;;;;10.30;99.90;;;;;;6608115;89;20469;-79
2024/02/17 04:21:47;;;;;;;;;;;10.40;99.90;;;;;;6607311;89;20058;-79
2024/02/17 04:31:47;;;;;;;;;;;10.40;99.90;;;;;;6633172;89;20084;-79
2024/02/17 04:41:48;;;;;;;;;;;10.30;99.90;;;;;;6629463;89;20070;-79
2024/02/17 04:51:48;;;;;;;;;;;10.30;99.90;;;;;;6625832;89;20731;-79
2024/02/17 05:01:49;;;;;;;;;;;10.20;99.90;;;;;;6627263;89;20112;-78
2024/02/17 05:11:49;;;;;;;;;;;10.20;99.90;;;;;;6622448;89;20087;-79
2024/02/17 05:21:49;;;;;;;;;;;10.20;99.90;;;;;;6621168;89;20558;-79
2024/02/17 05:31:50;;;;;;;;;;;10.10;99.90;;;;;;6636440;89;20092;-81
2024/02/17 05:41:51;;;;;;;;;;;10.20;99.90;;;;;;6629489;89;20169;-80
2024/02/17 05:51:51;;;;;;;;;;;10.20;99.90;;;;;;6618052;89;20097;-80
2024/02/17 06:01:52;;;;;;;;;;;10.20;99.90;;;;;;6639819;89;20084;-80
2024/02/17 06:11:52;;;;;;;;;;;10.20;99.90;;;;;;6630487;89;20846;-78
2024/02/17 06:21:56;;;;;;;;;;;10.20;99.90;;;;;;6633188;89;20054;-80
2024/02/17 06:31:56;;;;;;;;;;;10.30;99.90;;;;;;6637392;78;20159;-78
2024/02/17 06:41:57;;;;;;;;;;;10.30;99.90;;;;;;6728688;88;20069;-78
2024/02/17 06:51:58;;;;;;;;;;;10.20;99.90;;;;;;6729745;88;20054;-78
2024/02/17 07:01:59;;;;;;;;;;;10.20;99.90;;;;;;6728475;88;20078;-77
2024/02/17 07:11:59;;;;;;;;;;;10.30;99.90;;;;;;6726789;88;20188;-78
2024/02/17 07:22:00;;;;;;;;;;;10.30;99.90;;;;;;6725003;88;20589;-77
2024/02/17 07:32:00;;;;;;;;;;;10.30;99.90;;;;;;6720908;88;20140;-77
2024/02/17 07:42:01;;;;;;;;;;;10.40;99.90;;;;;;6720750;88;20063;-77
2024/02/17 07:52:02;;;;;;;;;;;10.40;99.90;;;;;;6723134;88;20204;-78
2024/02/17 08:02:02;;;;;;;;;;;10.50;99.90;;;;;;6723351;88;20063;-77
2024/02/17 08:12:03;;;;;;;;;;;10.50;99.90;;;;;;6711704;88;20063;-77
2024/02/17 08:22:03;;;;;;;;;;;10.60;99.90;;;;;;6719606;88;20063;-76
2024/02/17 08:32:04;;;;;;;;;;;10.70;99.90;;;;;;6729118;88;20024;-80
2024/02/17 08:42:04;;;;;;;;;;;10.70;99.90;;;;;;6724281;88;20071;-79
2024/02/17 08:52:05;;;;;;;;;;;10.70;99.90;;;;;;6735226;88;20092;-79
2024/02/17 09:02:06;;;;;;;;;;;10.80;99.90;;;;;;6730077;88;20642;-77
2024/02/17 09:12:06;;;;;;;;;;;11.00;99.90;;;;;;6724548;88;20270;-79
2024/02/17 09:22:07;;;;;;;;;;;11.00;99.90;;;;;;6725249;88;20190;-78
2024/02/17 09:32:07;;;;;;;;;;;11.10;99.90;;;;;;6725854;88;20074;-80
2024/02/17 09:42:08;;;;;;;;;;;11.40;99.90;;;;;;6733550;88;20057;-79
2024/02/17 09:52:10;;;;;;;;;;;11.40;99.90;;;;;;6724822;88;20090;-80
2024/02/17 10:02:10;;;;;;;;;;;11.40;99.90;;;;;;6722552;88;20548;-80
2024/02/17 10:12:13;;;;;;;;;;;11.50;99.90;;;;;;6721896;88;20050;-79
2024/02/17 10:22:13;;;;;;;;;;;11.60;99.90;;;;;;6722369;88;20051;-77
2024/02/17 10:32:14;;;;;;;;;;;11.60;99.90;;;;;;6718144;88;20080;-78
2024/02/17 10:42:15;;;;;;;;;;;11.60;99.90;;;;;;6722748;88;20066;-78
2024/02/17 10:52:18;;;;;;;;;;;11.70;99.90;;;;;;6723923;88;20126;-78
2024/02/17 11:02:21;;;;;;;;;;;11.70;99.90;;;;;;6716491;88;20071;-78
2024/02/17 11:12:28;;;;;;;;;;;11.70;99.90;;;;;;6720184;88;20059;-78
2024/02/17 11:22:29;;;;;;;;;;;11.80;99.90;;;;;;6723909;88;20086;-78
2024/02/17 11:32:30;;;;;;;;;;;11.80;99.90;;;;;;6719578;88;20071;-79
2024/02/17 11:42:31;;;;;;;;;;;12.00;99.90;;;;;;6721064;88;20051;-79
2024/02/17 11:52:32;;;;;;;;;;;12.00;99.90;;;;;;6726370;88;20067;-79
2024/02/17 12:02:34;;;;;;;;;;;12.10;99.90;;;;;;6727161;88;20084;-79
2024/02/17 12:12:39;;;;;;;;;;;12.30;99.90;;;;;;6726546;88;20063;-79
2024/02/17 12:22:46;;;;;;;;;;;12.50;99.90;;;;;;6729234;88;20042;-77
2024/02/17 12:42:53;;;;;;;;;;;12.90;99.90;;;;;;6735329;88;20083;-81
2024/02/17 12:53:13;;;;;;;;;;;13.10;99.90;;;;;;6731015;88;20521;-81
2024/02/17 13:03:14;;;;;;;;;;;13.30;99.90;;;;;;6732744;88;21075;-82
2024/02/17 13:13:14;;;;;;;;;;;13.40;99.90;;;;;;6730970;88;20061;-82
2024/02/17 13:23:15;;;;;;;;;;;13.50;99.90;;;;;;6730354;88;20531;-82
2024/02/17 13:33:16;;;;;;;;;;;13.60;99.90;;;;;;6728090;88;20142;-82
2024/02/17 13:43:16;;;;;;;;;;;13.50;99.90;;;;;;6713220;88;20548;-81
2024/02/17 13:53:17;;;;;;;;;;;13.60;99.90;;;;;;6720268;88;20050;-81
2024/02/17 14:03:17;;;;;;;;;;;13.60;99.90;;;;;;6720543;88;20450;-80
2024/02/17 14:13:18;;;;;;;;;;;13.40;99.90;;;;;;6727447;88;20071;-80
2024/02/17 14:23:18;;;;;;;;;;;13.20;99.90;;;;;;6733343;88;20648;-79
2024/02/17 14:33:19;;;;;;;;;;;13.20;99.90;;;;;;6739259;88;20073;-79
2024/02/17 14:43:20;;;;;;;;;;;13.30;99.90;;;;;;6732308;88;20228;-82
2024/02/17 14:53:21;;;;;;;;;;;13.20;99.90;;;;;;6733228;88;20090;-80
2024/02/17 15:03:22;;;;;;;;;;;13.20;99.90;;;;;;6732064;88;20091;-79
2024/02/17 15:13:23;;;;;;;;;;;13.20;99.90;;;;;;6729641;88;20599;-79
2024/02/17 15:23:23;;;;;;;;;;;13.10;99.90;;;;;;6735698;88;20109;-78
2024/02/17 15:33:24;;;;;;;;;;;13.10;99.90;;;;;;6719956;88;20062;-77
2024/02/17 15:43:25;;;;;;;;;;;12.90;99.90;;;;;;6724847;88;20099;-77
2024/02/17 15:53:29;;;;;;;;;;;12.90;99.90;;;;;;6723501;88;20070;-78
2024/02/17 16:03:32;;;;;;;;;;;12.70;99.90;;;;;;6717357;88;20521;-79
2024/02/17 16:13:32;;;;;;;;;;;12.70;99.90;;;;;;6720778;88;20055;-76
2024/02/17 16:23:33;;;;;;;;;;;12.60;99.90;;;;;;6720897;88;20493;-80
2024/02/17 16:33:35;;;;;;;;;;;12.40;99.90;;;;;;6728279;88;20056;-80
2024/02/17 16:43:35;;;;;;;;;;;12.40;99.90;;;;;;6726664;88;20072;-79
2024/02/17 16:53:36;;;;;;;;;;;12.30;99.90;;;;;;6725333;88;20551;-79
2024/02/17 17:03:37;;;;;;;;;;;12.10;99.90;;;;;;6727208;88;20422;-79
2024/02/17 17:13:37;;;;;;;;;;;12.00;99.90;;;;;;6729832;88;20528;-79
2024/02/17 17:23:38;;;;;;;;;;;12.10;99.90;;;;;;6730856;88;20071;-78
2024/02/17 17:33:38;;;;;;;;;;;11.90;99.90;;;;;;6724513;88;20083;-76
2024/02/17 17:43:39;;;;;;;;;;;11.80;99.90;;;;;;6725827;88;20104;-79
2024/02/17 17:53:40;;;;;;;;;;;11.70;99.90;;;;;;6728061;88;20089;-79
2024/02/17 18:03:40;;;;;;;;;;;11.70;99.90;;;;;;6728174;88;20120;-78
2024/02/17 18:13:40;;;;;;;;;;;11.40;99.90;;;;;;6727300;88;20108;-79
2024/02/17 18:23:41;;;;;;;;;;;11.20;99.90;;;;;;6729459;88;20085;-75
2024/02/17 18:33:43;;;;;;;;;;;11.10;99.90;;;;;;6718672;77;20170;-79
2024/02/17 18:43:43;;;;;;;;;;;11.20;99.90;;;;;;6624437;88;20452;-78
2024/02/17 18:53:45;;;;;;;;;;;11.20;99.90;;;;;;6616257;88;20056;-77
2024/02/17 19:03:49;;;;;;;;;;;10.90;99.90;;;;;;6614094;88;20047;-77
2024/02/17 19:13:50;;;;;;;;;;;10.60;99.90;;;;;;6618014;88;20055;-76
2024/02/17 19:23:50;;;;;;;;;;;10.30;99.90;;;;;;6633291;88;20559;-76
2024/02/17 19:33:51;;;;;;;;;;;10.10;99.90;;;;;;6613183;88;20114;-74
2024/02/17 19:43:52;;;;;;;;;;;10.20;99.90;;;;;;6608370;88;20106;-74
2024/02/17 19:53:52;;;;;;;;;;;10.10;99.90;;;;;;6614005;88;20543;-76
2024/02/17 20:03:53;;;;;;;;;;;9.90;99.90;;;;;;6623939;88;20144;-77
2024/02/17 20:13:55;;;;;;;;;;;9.90;99.90;;;;;;6600221;88;20130;-77
2024/02/17 20:23:55;;;;;;;;;;;9.60;99.90;;;;;;6606074;88;20203;-77
2024/02/17 20:33:58;;;;;;;;;;;9.70;99.90;;;;;;6607044;88;20115;-75
2024/02/17 20:43:59;;;;;;;;;;;9.40;99.90;;;;;;6614092;88;20214;-76
2024/02/17 20:53:59;;;;;;;;;;;9.50;99.90;;;;;;6675799;88;20082;-75
2024/02/17 21:04:00;;;;;;;;;;;9.60;99.90;;;;;;6647956;88;20473;-75
2024/02/17 21:14:00;;;;;;;;;;;9.40;99.90;;;;;;6665613;88;20185;-75
2024/02/17 21:24:01;;;;;;;;;;;9.00;99.90;;;;;;6696070;88;20463;-76
2024/02/17 21:34:01;;;;;;;;;;;8.90;99.90;;;;;;6639845;88;20058;-75
2024/02/17 21:44:01;;;;;;;;;;;8.90;99.90;;;;;;6655115;88;20074;-74
2024/02/17 21:54:02;;;;;;;;;;;8.80;99.90;;;;;;6658938;88;20577;-75
2024/02/17 22:04:02;;;;;;;;;;;8.90;99.90;;;;;;6636351;88;20101;-75
2024/02/17 22:14:03;;;;;;;;;;;9.10;99.90;;;;;;6635985;88;20317;-75
2024/02/17 22:24:05;;;;;;;;;;;9.20;99.90;;;;;;6634691;88;20075;-75
2024/02/17 22:34:05;;;;;;;;;;;9.30;99.90;;;;;;6656950;88;20194;-75
2024/02/17 22:44:06;;;;;;;;;;;9.30;99.90;;;;;;6670807;88;20048;-75
2024/02/17 22:54:07;;;;;;;;;;;9.50;99.90;;;;;;6665797;88;20056;-74
2024/02/17 23:04:07;;;;;;;;;;;9.70;99.90;;;;;;6613389;88;20194;-75
2024/02/17 23:14:08;;;;;;;;;;;9.70;99.90;;;;;;6647307;88;20153;-75
2024/02/17 23:24:08;;;;;;;;;;;9.60;99.90;;;;;;6624267;88;20558;-75
2024/02/17 23:34:08;;;;;;;;;;;9.60;99.90;;;;;;6645262;88;20060;-75
2024/02/17 23:44:09;;;;;;;;;;;9.60;99.90;;;;;;6638534;88;20072;-75
2024/02/17 23:54:09;;;;;;;;;;;9.50;99.90;;;;;;6651987;88;20543;-75
